createdAt,value
2017-12-24T00:00:08.924Z,968.4
2017-12-24T00:01:18.898Z,968.46
2017-12-24T00:02:28.900Z,968.36
2017-12-24T00:03:38.934Z,968.36
2017-12-24T00:04:48.923Z,968.37
2017-12-24T00:05:58.964Z,968.39
2017-12-24T00:07:08.948Z,968.39
2017-12-24T00:08:18.665Z,968.39
2017-12-24T00:09:28.382Z,968.42
2017-12-24T00:10:37.837Z,968.42
2017-12-24T00:11:47.832Z,968.49
2017-12-24T00:12:57.822Z,968.56
2017-12-24T00:14:07.539Z,968.6
2017-12-24T00:15:17.526Z,968.63
2017-12-24T00:16:27.509Z,968.63
2017-12-24T00:17:37.234Z,968.65
2017-12-24T00:18:47.215Z,968.73
2017-12-24T00:19:57.201Z,968.73
2017-12-24T00:21:06.921Z,968.74
2017-12-24T00:22:16.915Z,968.75
2017-12-24T00:23:26.910Z,968.71
2017-12-24T00:24:36.939Z,968.75
2017-12-24T00:25:46.919Z,968.73
2017-12-24T00:26:56.903Z,968.71
2017-12-24T00:28:06.901Z,968.68
2017-12-24T00:29:16.886Z,968.7
2017-12-24T00:30:26.871Z,968.73
2017-12-24T00:31:36.591Z,968.73
2017-12-24T00:32:46.586Z,968.74
2017-12-24T00:33:56.572Z,968.75
2017-12-24T00:35:06.029Z,968.82
2017-12-24T00:36:15.769Z,968.82
2017-12-24T00:37:25.482Z,968.91
2017-12-24T00:38:35.205Z,968.9
2017-12-24T00:39:45.186Z,968.9
2017-12-24T00:40:55.163Z,968.89
2017-12-24T00:42:05.164Z,968.87
2017-12-24T00:43:14.879Z,968.88
2017-12-24T00:44:24.914Z,968.89
2017-12-24T00:45:34.896Z,968.86
2017-12-24T00:46:44.616Z,968.86
2017-12-24T00:47:54.603Z,968.89
2017-12-24T00:49:04.583Z,968.87
2017-12-24T00:50:14.565Z,968.9
2017-12-24T00:51:24.543Z,968.87
2017-12-24T00:52:34.529Z,968.82
2017-12-24T00:53:44.543Z,968.83
2017-12-24T00:54:54.540Z,968.84
2017-12-24T00:56:04.781Z,968.88
2017-12-24T00:57:14.841Z,968.86
2017-12-24T00:58:24.561Z,968.91
2017-12-24T00:59:34.561Z,968.9
2017-12-24T01:00:44.541Z,968.88
2017-12-24T01:01:54.584Z,968.88
2017-12-24T01:03:04.563Z,968.93
2017-12-24T01:04:14.544Z,968.95
2017-12-24T01:05:24.538Z,968.95
2017-12-24T01:06:34.572Z,968.96
2017-12-24T01:07:44.294Z,968.98
2017-12-24T01:08:54.274Z,968.96
2017-12-24T01:10:04.265Z,968.9
2017-12-24T01:11:14.281Z,968.95
2017-12-24T01:12:24.275Z,968.92
2017-12-24T01:13:34.258Z,968.9
2017-12-24T01:14:43.967Z,968.89
2017-12-24T01:15:53.950Z,968.94
2017-12-24T01:17:03.927Z,968.91
2017-12-24T01:18:13.646Z,968.9
2017-12-24T01:19:23.626Z,968.9
2017-12-24T01:20:33.609Z,968.93
2017-12-24T01:21:43.595Z,968.93
2017-12-24T01:22:53.590Z,968.94
2017-12-24T01:24:03.567Z,968.89
2017-12-24T01:25:13.550Z,968.91
2017-12-24T01:26:23.532Z,968.88
2017-12-24T01:27:33.515Z,968.87
2017-12-24T01:28:43.513Z,968.95
2017-12-24T01:29:53.227Z,969.02
2017-12-24T01:31:03.216Z,969.03
2017-12-24T01:32:12.935Z,969
2017-12-24T01:33:22.914Z,969.07
2017-12-24T01:34:32.898Z,969.04
2017-12-24T01:35:42.614Z,968.92
2017-12-24T01:36:52.672Z,968.98
2017-12-24T01:38:02.654Z,969.08
2017-12-24T01:39:12.647Z,969.06
2017-12-24T01:40:22.629Z,969.03
2017-12-24T01:41:32.618Z,969.06
2017-12-24T01:42:42.598Z,969.07
2017-12-24T01:43:52.319Z,969.06
2017-12-24T01:45:02.038Z,968.99
2017-12-24T01:46:12.022Z,969.03
2017-12-24T01:47:22.005Z,969.04
2017-12-24T01:48:31.985Z,969.02
2017-12-24T01:49:41.976Z,969.13
2017-12-24T01:50:51.962Z,969.03
2017-12-24T01:52:01.944Z,969.05
2017-12-24T01:53:11.932Z,969.03
2017-12-24T01:54:21.907Z,968.98
2017-12-24T01:55:31.889Z,968.98
2017-12-24T01:56:41.878Z,969.02
2017-12-24T01:57:51.869Z,969.01
2017-12-24T01:59:01.856Z,968.98
2017-12-24T02:00:11.839Z,969.04
2017-12-24T02:01:21.821Z,969.05
2017-12-24T02:02:31.814Z,969.08
2017-12-24T02:03:41.798Z,969.03
2017-12-24T02:04:51.780Z,969.15
2017-12-24T02:06:01.763Z,969.18
2017-12-24T02:07:11.746Z,969.1
2017-12-24T02:08:21.738Z,969.14
2017-12-24T02:09:31.721Z,969.21
2017-12-24T02:10:41.444Z,969.14
2017-12-24T02:11:51.423Z,969.16
2017-12-24T02:13:01.403Z,969.15
2017-12-24T02:14:11.398Z,969.17
2017-12-24T02:15:21.425Z,969.21
2017-12-24T02:16:31.413Z,969.21
2017-12-24T02:17:41.392Z,969.21
2017-12-24T02:18:51.371Z,969.2
2017-12-24T02:20:01.354Z,969.31
2017-12-24T02:21:11.336Z,969.24
2017-12-24T02:22:21.321Z,969.27
2017-12-24T02:23:31.305Z,969.29
2017-12-24T02:24:41.292Z,969.31
2017-12-24T02:25:51.275Z,969.28
2017-12-24T02:27:01.258Z,969.3
2017-12-24T02:28:11.242Z,969.31
2017-12-24T02:29:21.223Z,969.31
2017-12-24T02:30:31.211Z,969.32
2017-12-24T02:31:41.202Z,969.36
2017-12-24T02:32:50.921Z,969.37
2017-12-24T02:34:00.906Z,969.38
2017-12-24T02:35:10.888Z,969.3
2017-12-24T02:36:20.629Z,969.26
2017-12-24T02:37:30.618Z,969.31
2017-12-24T02:38:40.608Z,969.31
2017-12-24T02:39:50.334Z,969.27
2017-12-24T02:41:00.320Z,969.18
2017-12-24T02:42:10.307Z,969.27
2017-12-24T02:43:20.027Z,969.22
2017-12-24T02:44:30.011Z,969.26
2017-12-24T02:45:40.020Z,969.3
2017-12-24T02:46:49.998Z,969.36
2017-12-24T02:48:00.006Z,969.33
2017-12-24T02:49:09.990Z,969.28
2017-12-24T02:50:20.009Z,969.25
2017-12-24T02:51:30.012Z,969.26
2017-12-24T02:52:40.007Z,969.27
2017-12-24T02:53:50.075Z,969.23
2017-12-24T02:55:00.113Z,969.26
2017-12-24T02:56:10.098Z,969.33
2017-12-24T02:57:20.082Z,969.32
2017-12-24T02:58:30.163Z,969.21
2017-12-24T02:59:40.157Z,969.24
2017-12-24T03:00:49.942Z,969.3
2017-12-24T03:01:59.937Z,969.23
2017-12-24T03:03:09.916Z,969.19
2017-12-24T03:04:19.946Z,969.15
2017-12-24T03:05:29.926Z,969.18
2017-12-24T03:06:39.910Z,969.2
2017-12-24T03:07:49.888Z,969.2
2017-12-24T03:08:59.878Z,969.24
2017-12-24T03:10:14.178Z,969.25
2017-12-24T03:11:24.160Z,969.26
2017-12-24T03:12:33.872Z,969.31
2017-12-24T03:13:43.648Z,969.3
2017-12-24T03:14:53.631Z,969.37
2017-12-24T03:16:03.670Z,969.34
2017-12-24T03:17:13.651Z,969.35
2017-12-24T03:18:23.631Z,969.37
2017-12-24T03:19:33.619Z,969.31
2017-12-24T03:20:43.666Z,969.26
2017-12-24T03:21:53.645Z,969.24
2017-12-24T03:23:03.360Z,969.21
2017-12-24T03:24:13.403Z,969.19
2017-12-24T03:25:23.387Z,969.2
2017-12-24T03:26:33.368Z,969.15
2017-12-24T03:27:43.350Z,969.17
2017-12-24T03:28:53.340Z,969.14
2017-12-24T03:30:03.328Z,969.12
2017-12-24T03:31:13.321Z,969.13
2017-12-24T03:32:23.465Z,969.14
2017-12-24T03:33:33.446Z,969.14
2017-12-24T03:34:43.426Z,969.11
2017-12-24T03:35:53.410Z,969.2
2017-12-24T03:37:03.405Z,969.19
2017-12-24T03:38:13.120Z,969.24
2017-12-24T03:39:23.103Z,969.22
2017-12-24T03:40:33.086Z,969.25
2017-12-24T03:41:42.805Z,969.25
2017-12-24T03:42:52.784Z,969.27
2017-12-24T03:44:02.766Z,969.29
2017-12-24T03:45:12.214Z,969.29
2017-12-24T03:46:21.932Z,969.31
2017-12-24T03:47:31.917Z,969.33
2017-12-24T03:48:41.895Z,969.33
2017-12-24T03:49:51.883Z,969.34
2017-12-24T03:51:01.871Z,969.36
2017-12-24T03:52:11.862Z,969.36
2017-12-24T03:53:21.845Z,969.32
2017-12-24T03:54:31.566Z,969.34
2017-12-24T03:55:41.563Z,969.34
2017-12-24T03:56:51.015Z,969.37
2017-12-24T03:58:00.998Z,969.32
2017-12-24T03:59:10.979Z,969.33
2017-12-24T04:04:30.198Z,969.33
2017-12-24T04:05:40.254Z,969.4
2017-12-24T04:06:50.238Z,969.34
2017-12-24T04:08:00.276Z,969.4
2017-12-24T04:09:10.259Z,969.32
2017-12-24T04:10:20.244Z,969.34
2017-12-24T04:11:30.276Z,969.34
2017-12-24T04:12:40.258Z,969.29
2017-12-24T04:13:50.030Z,969.31
2017-12-24T04:15:00.021Z,969.35
2017-12-24T04:16:09.740Z,969.32
2017-12-24T04:17:19.718Z,969.31
2017-12-24T04:18:29.699Z,969.33
2017-12-24T04:19:39.691Z,969.31
2017-12-24T04:20:49.670Z,969.23
2017-12-24T04:21:59.124Z,969.19
2017-12-24T04:23:09.106Z,969.12
2017-12-24T04:24:19.087Z,969.12
2017-12-24T04:25:29.072Z,969.11
2017-12-24T04:26:39.052Z,969.08
2017-12-24T04:27:49.041Z,969.05
2017-12-24T04:28:59.051Z,969.05
2017-12-24T04:30:08.770Z,969.03
2017-12-24T04:31:18.226Z,969.06
2017-12-24T04:32:27.941Z,968.91
2017-12-24T04:33:37.926Z,968.88
2017-12-24T04:34:47.913Z,968.87
2017-12-24T04:35:57.894Z,968.85
2017-12-24T04:37:07.615Z,968.87
2017-12-24T04:38:17.594Z,968.8
2017-12-24T04:39:27.579Z,968.78
2017-12-24T04:40:37.557Z,968.81
2017-12-24T04:41:47.544Z,968.7
2017-12-24T04:42:57.525Z,968.63
2017-12-24T04:44:07.513Z,968.64
2017-12-24T04:45:17.233Z,968.63
2017-12-24T04:46:27.238Z,968.53
2017-12-24T04:47:37.281Z,968.62
2017-12-24T04:48:47.276Z,968.6
2017-12-24T04:49:57.256Z,968.65
2017-12-24T04:51:07.246Z,968.7
2017-12-24T04:52:17.237Z,968.59
2017-12-24T04:53:27.237Z,968.7
2017-12-24T04:54:37.224Z,968.63
2017-12-24T04:55:47.203Z,968.61
2017-12-24T04:56:57.182Z,968.6
2017-12-24T04:58:06.894Z,968.64
2017-12-24T04:59:16.609Z,968.62
2017-12-24T05:00:26.592Z,968.56
2017-12-24T05:01:36.581Z,968.61
2017-12-24T05:02:46.562Z,968.61
2017-12-24T05:03:56.541Z,968.61
2017-12-24T05:05:06.258Z,968.62
2017-12-24T05:06:16.238Z,968.63
2017-12-24T05:07:26.270Z,968.69
2017-12-24T05:08:35.719Z,968.67
2017-12-24T05:09:45.435Z,968.7
2017-12-24T05:10:55.418Z,968.73
2017-12-24T05:12:05.397Z,968.72
2017-12-24T05:13:15.376Z,968.67
2017-12-24T05:14:25.356Z,968.67
2017-12-24T05:15:35.339Z,968.76
2017-12-24T05:16:45.328Z,968.72
2017-12-24T05:17:55.318Z,968.76
2017-12-24T05:19:05.304Z,968.77
2017-12-24T05:20:15.284Z,968.74
2017-12-24T05:21:25.264Z,968.78
2017-12-24T05:22:35.272Z,968.76
2017-12-24T05:23:45.253Z,968.76
2017-12-24T05:24:55.233Z,968.75
2017-12-24T05:26:05.222Z,968.77
2017-12-24T05:27:14.931Z,968.75
2017-12-24T05:28:24.909Z,968.74
2017-12-24T05:29:34.977Z,968.69
2017-12-24T05:30:44.955Z,968.73
2017-12-24T05:31:54.938Z,968.72
2017-12-24T05:33:04.662Z,968.71
2017-12-24T05:34:14.644Z,968.72
2017-12-24T05:35:24.623Z,968.77
2017-12-24T05:36:34.658Z,968.75
2017-12-24T05:37:44.692Z,968.79
2017-12-24T05:38:54.669Z,968.79
2017-12-24T05:40:04.383Z,968.76
2017-12-24T05:41:14.099Z,968.8
2017-12-24T05:42:24.079Z,968.8
2017-12-24T05:43:34.078Z,968.79
2017-12-24T05:44:44.062Z,968.82
2017-12-24T05:45:54.040Z,968.82
2017-12-24T05:47:03.753Z,968.81
2017-12-24T05:48:13.204Z,968.84
2017-12-24T05:49:23.192Z,968.81
2017-12-24T05:50:33.174Z,968.78
2017-12-24T05:51:43.151Z,968.79
2017-12-24T05:52:53.137Z,968.82
2017-12-24T05:54:02.853Z,968.84
2017-12-24T05:55:12.835Z,968.81
2017-12-24T05:56:22.552Z,968.76
2017-12-24T05:57:32.540Z,968.82
2017-12-24T05:58:42.517Z,968.81
2017-12-24T05:59:52.501Z,968.78
2017-12-24T06:01:02.225Z,968.75
2017-12-24T06:02:12.214Z,968.77
2017-12-24T06:03:22.200Z,968.78
2017-12-24T06:04:32.182Z,968.83
2017-12-24T06:05:42.166Z,968.8
2017-12-24T06:06:51.885Z,968.81
2017-12-24T06:08:01.867Z,968.76
2017-12-24T06:09:11.848Z,968.8
2017-12-24T06:10:21.836Z,968.75
2017-12-24T06:11:31.829Z,968.75
2017-12-24T06:12:41.810Z,968.73
2017-12-24T06:13:51.851Z,968.72
2017-12-24T06:15:01.833Z,968.66
2017-12-24T06:16:11.575Z,968.68
2017-12-24T06:17:21.595Z,968.66
2017-12-24T06:18:31.572Z,968.67
2017-12-24T06:19:41.559Z,968.66
2017-12-24T06:20:51.538Z,968.75
2017-12-24T06:22:01.519Z,968.73
2017-12-24T06:23:11.498Z,968.75
2017-12-24T06:24:21.494Z,968.76
2017-12-24T06:25:31.478Z,968.77
2017-12-24T06:26:41.193Z,968.81
2017-12-24T06:27:50.912Z,968.72
2017-12-24T06:29:00.902Z,968.77
2017-12-24T06:30:10.885Z,968.77
2017-12-24T06:31:20.880Z,968.75
2017-12-24T06:32:30.869Z,968.69
2017-12-24T06:33:40.863Z,968.64
2017-12-24T06:34:50.847Z,968.62
2017-12-24T06:36:00.829Z,968.6
2017-12-24T06:37:10.556Z,968.58
2017-12-24T06:38:20.544Z,968.54
2017-12-24T06:39:30.529Z,968.54
2017-12-24T06:40:40.512Z,968.54
2017-12-24T06:41:50.495Z,968.47
2017-12-24T06:43:00.480Z,968.49
2017-12-24T06:44:10.201Z,968.53
2017-12-24T06:45:20.184Z,968.52
2017-12-24T06:46:29.909Z,968.53
2017-12-24T06:47:39.887Z,968.54
2017-12-24T06:48:49.867Z,968.54
2017-12-24T06:49:59.845Z,968.56
2017-12-24T06:51:09.831Z,968.56
2017-12-24T06:52:19.821Z,968.62
2017-12-24T06:53:29.809Z,968.55
2017-12-24T06:54:39.524Z,968.49
2017-12-24T06:55:49.026Z,968.52
2017-12-24T06:56:59.014Z,968.57
2017-12-24T06:58:09.002Z,968.53
2017-12-24T06:59:18.987Z,968.48
2017-12-24T07:00:28.973Z,968.53
2017-12-24T07:01:38.958Z,968.45
2017-12-24T07:02:48.674Z,968.52
2017-12-24T07:03:58.660Z,968.54
2017-12-24T07:05:08.653Z,968.52
2017-12-24T07:06:18.374Z,968.59
2017-12-24T07:07:28.359Z,968.58
2017-12-24T07:08:38.341Z,968.59
2017-12-24T07:09:48.324Z,968.56
2017-12-24T07:10:58.303Z,968.57
2017-12-24T07:12:08.289Z,968.57
2017-12-24T07:13:18.282Z,968.49
2017-12-24T07:14:28.262Z,968.47
2017-12-24T07:15:37.984Z,968.41
2017-12-24T07:16:47.979Z,968.45
2017-12-24T07:17:57.966Z,968.53
2017-12-24T07:19:07.951Z,968.52
2017-12-24T07:20:17.936Z,968.53
2017-12-24T07:21:27.920Z,968.54
2017-12-24T07:22:37.642Z,968.5
2017-12-24T07:23:47.631Z,968.54
2017-12-24T07:24:57.344Z,968.43
2017-12-24T07:26:07.333Z,968.45
2017-12-24T07:27:17.316Z,968.42
2017-12-24T07:28:27.029Z,968.41
2017-12-24T07:29:36.757Z,968.47
2017-12-24T07:30:46.747Z,968.47
2017-12-24T07:31:56.728Z,968.5
2017-12-24T07:33:06.451Z,968.52
2017-12-24T07:34:16.432Z,968.51
2017-12-24T07:35:26.412Z,968.53
2017-12-24T07:36:36.397Z,968.56
2017-12-24T07:37:46.379Z,968.62
2017-12-24T07:38:56.865Z,968.59
2017-12-24T07:40:06.584Z,968.53
2017-12-24T07:41:16.566Z,968.55
2017-12-24T07:42:26.602Z,968.57
2017-12-24T07:43:36.592Z,968.57
2017-12-24T07:44:46.576Z,968.53
2017-12-24T07:45:56.290Z,968.45
2017-12-24T07:47:06.277Z,968.49
2017-12-24T07:48:16.262Z,968.54
2017-12-24T07:49:25.973Z,968.57
2017-12-24T07:50:36.042Z,968.6
2017-12-24T07:51:46.047Z,968.56
2017-12-24T07:52:56.032Z,968.54
2017-12-24T07:54:06.017Z,968.53
2017-12-24T07:55:16.001Z,968.51
2017-12-24T07:56:25.988Z,968.56
2017-12-24T07:57:35.970Z,968.6
2017-12-24T07:58:45.422Z,968.51
2017-12-24T07:59:55.403Z,968.45
2017-12-24T08:01:05.428Z,968.46
2017-12-24T08:02:15.712Z,968.47
2017-12-24T08:03:25.440Z,968.48
2017-12-24T08:04:34.892Z,968.42
2017-12-24T08:05:44.931Z,968.43
2017-12-24T08:06:54.643Z,968.45
2017-12-24T08:08:04.621Z,968.52
2017-12-24T08:09:14.602Z,968.49
2017-12-24T08:10:24.319Z,968.54
2017-12-24T08:11:34.305Z,968.58
2017-12-24T08:12:44.288Z,968.61
2017-12-24T08:13:54.623Z,968.61
2017-12-24T08:15:04.338Z,968.62
2017-12-24T08:16:14.328Z,968.62
2017-12-24T08:17:24.369Z,968.67
2017-12-24T08:18:34.379Z,968.7
2017-12-24T08:19:44.367Z,968.72
2017-12-24T08:20:54.349Z,968.72
2017-12-24T08:22:04.330Z,968.73
2017-12-24T08:23:14.051Z,968.67
2017-12-24T08:24:24.033Z,968.71
2017-12-24T08:25:34.024Z,968.74
2017-12-24T08:26:44.010Z,968.73
2017-12-24T08:27:53.731Z,968.73
2017-12-24T08:29:03.716Z,968.8
2017-12-24T08:30:13.700Z,968.77
2017-12-24T08:31:23.681Z,968.79
2017-12-24T08:32:33.666Z,968.76
2017-12-24T08:33:43.645Z,968.74
2017-12-24T08:34:53.636Z,968.74
2017-12-24T08:36:03.353Z,968.73
2017-12-24T08:37:13.081Z,968.75
2017-12-24T08:38:23.063Z,968.77
2017-12-24T08:39:33.048Z,968.76
2017-12-24T08:40:43.030Z,968.72
2017-12-24T08:41:52.744Z,968.72
2017-12-24T08:43:02.721Z,968.65
2017-12-24T08:44:12.703Z,968.67
2017-12-24T08:45:22.688Z,968.66
2017-12-24T08:46:32.671Z,968.69
2017-12-24T08:47:42.655Z,968.73
2017-12-24T08:48:52.642Z,968.72
2017-12-24T08:50:02.631Z,968.83
2017-12-24T08:51:12.345Z,968.84
2017-12-24T08:52:22.327Z,968.84
2017-12-24T08:53:32.319Z,968.84
2017-12-24T08:54:42.315Z,968.83
2017-12-24T08:55:52.031Z,968.81
2017-12-24T08:57:02.015Z,968.8
2017-12-24T08:58:11.803Z,968.75
2017-12-24T08:59:21.789Z,968.71
2017-12-24T09:00:31.777Z,968.74
2017-12-24T09:01:41.758Z,968.75
2017-12-24T09:02:51.479Z,968.74
2017-12-24T09:04:01.458Z,968.77
2017-12-24T09:05:11.180Z,968.75
2017-12-24T09:06:21.223Z,968.64
2017-12-24T09:07:31.209Z,968.63
2017-12-24T09:08:41.192Z,968.59
2017-12-24T09:09:51.177Z,968.57
2017-12-24T09:11:00.651Z,968.56
2017-12-24T09:12:10.637Z,968.5
2017-12-24T09:13:20.620Z,968.44
2017-12-24T09:14:30.611Z,968.44
2017-12-24T09:15:40.327Z,968.39
2017-12-24T09:16:50.311Z,968.35
2017-12-24T09:18:00.029Z,968.3
2017-12-24T09:19:10.024Z,968.31
2017-12-24T09:20:20.004Z,968.33
2017-12-24T09:21:29.719Z,968.35
2017-12-24T09:22:39.704Z,968.33
2017-12-24T09:23:49.418Z,968.34
2017-12-24T09:24:59.471Z,968.32
2017-12-24T09:26:09.519Z,968.37
2017-12-24T09:27:19.239Z,968.4
2017-12-24T09:28:29.227Z,968.38
2017-12-24T09:29:38.993Z,968.4
2017-12-24T09:30:48.976Z,968.44
2017-12-24T09:31:58.690Z,968.41
2017-12-24T09:33:08.674Z,968.46
2017-12-24T09:34:18.396Z,968.41
2017-12-24T09:35:28.373Z,968.38
2017-12-24T09:36:38.355Z,968.37
2017-12-24T09:37:48.343Z,968.38
2017-12-24T09:38:58.322Z,968.35
2017-12-24T09:40:08.329Z,968.38
2017-12-24T09:41:18.315Z,968.35
2017-12-24T09:42:28.307Z,968.35
2017-12-24T09:43:38.342Z,968.39
2017-12-24T09:44:48.331Z,968.37
2017-12-24T09:45:58.318Z,968.41
2017-12-24T09:47:08.303Z,968.47
2017-12-24T09:48:18.283Z,968.48
2017-12-24T09:49:28.270Z,968.45
2017-12-24T09:50:37.986Z,968.43
2017-12-24T09:51:47.698Z,968.44
2017-12-24T09:52:57.682Z,968.35
2017-12-24T09:54:07.666Z,968.39
2017-12-24T09:55:17.657Z,968.45
2017-12-24T09:56:27.640Z,968.44
2017-12-24T09:57:37.639Z,968.41
2017-12-24T09:58:47.619Z,968.44
2017-12-24T09:59:57.608Z,968.37
2017-12-24T10:01:07.355Z,968.35
2017-12-24T10:02:17.336Z,968.4
2017-12-24T10:03:27.054Z,968.44
2017-12-24T10:04:36.780Z,968.43
2017-12-24T10:05:46.766Z,968.43
2017-12-24T10:06:56.751Z,968.42
2017-12-24T10:08:06.467Z,968.4
2017-12-24T10:09:16.450Z,968.34
2017-12-24T10:10:26.430Z,968.32
2017-12-24T10:11:36.442Z,968.26
2017-12-24T10:12:46.428Z,968.29
2017-12-24T10:13:56.145Z,968.3
2017-12-24T10:15:06.141Z,968.33
2017-12-24T10:16:15.593Z,968.41
2017-12-24T10:17:25.582Z,968.42
2017-12-24T10:18:35.569Z,968.47
2017-12-24T10:19:45.574Z,968.47
2017-12-24T10:20:55.561Z,968.46
2017-12-24T10:22:05.542Z,968.47
2017-12-24T10:23:15.530Z,968.44
2017-12-24T10:24:25.526Z,968.4
2017-12-24T10:25:35.508Z,968.38
2017-12-24T10:26:45.336Z,968.37
2017-12-24T10:27:55.316Z,968.38
2017-12-24T10:29:05.044Z,968.46
2017-12-24T10:30:15.031Z,968.43
2017-12-24T10:31:24.482Z,968.46
2017-12-24T10:32:34.211Z,968.4
2017-12-24T10:33:44.194Z,968.4
2017-12-24T10:34:54.184Z,968.36
2017-12-24T10:36:04.193Z,968.34
2017-12-24T10:37:14.175Z,968.25
2017-12-24T10:38:23.624Z,968.19
2017-12-24T10:39:33.608Z,968.17
2017-12-24T10:40:43.588Z,968.17
2017-12-24T10:41:53.568Z,968.17
2017-12-24T10:43:03.557Z,968.25
2017-12-24T10:44:13.582Z,968.2
2017-12-24T10:45:23.561Z,968.26
2017-12-24T10:46:33.545Z,968.2
2017-12-24T10:47:43.262Z,968.17
2017-12-24T10:48:52.714Z,968.15
2017-12-24T10:50:02.696Z,968.16
2017-12-24T10:51:12.672Z,968.15
2017-12-24T10:52:22.705Z,968.12
2017-12-24T10:53:32.689Z,968.12
2017-12-24T10:54:42.681Z,968.08
2017-12-24T10:55:52.664Z,968.1
2017-12-24T10:57:02.654Z,968.1
2017-12-24T10:58:12.383Z,968.16
2017-12-24T10:59:22.098Z,968.17
2017-12-24T11:00:32.078Z,968.19
2017-12-24T11:01:41.793Z,968.15
2017-12-24T11:02:51.532Z,968.1
2017-12-24T11:04:01.512Z,968.12
2017-12-24T11:05:11.498Z,968.09
2017-12-24T11:06:21.476Z,968.09
2017-12-24T11:07:31.456Z,968.1
2017-12-24T11:08:43.441Z,968.14
2017-12-24T11:09:53.431Z,968.19
2017-12-24T11:11:03.148Z,968.16
2017-12-24T11:12:12.865Z,968.15
2017-12-24T11:13:22.848Z,968.16
2017-12-24T11:14:32.568Z,968.16
2017-12-24T11:15:42.283Z,968.13
2017-12-24T11:16:52.271Z,968.14
2017-12-24T11:18:01.988Z,968.13
2017-12-24T11:19:11.971Z,968.1
2017-12-24T11:20:21.691Z,968.16
2017-12-24T11:21:31.674Z,968.22
2017-12-24T11:22:41.663Z,968.24
2017-12-24T11:23:51.642Z,968.21
2017-12-24T11:25:01.358Z,968.2
2017-12-24T11:26:11.081Z,968.24
2017-12-24T11:27:21.061Z,968.25
2017-12-24T11:28:30.513Z,968.28
2017-12-24T11:29:40.492Z,968.24
2017-12-24T11:30:50.206Z,968.22
2017-12-24T11:32:02.191Z,968.25
2017-12-24T11:33:11.913Z,968.24
2017-12-24T11:34:21.630Z,968.21
2017-12-24T11:35:31.613Z,968.13
2017-12-24T11:36:41.329Z,968.15
2017-12-24T11:37:51.322Z,968.18
2017-12-24T11:39:01.036Z,968.22
2017-12-24T11:40:11.019Z,968.24
2017-12-24T11:41:20.743Z,968.28
2017-12-24T11:42:30.463Z,968.28
2017-12-24T11:43:42.182Z,968.26
2017-12-24T11:44:52.168Z,968.26
2017-12-24T11:46:01.884Z,968.18
2017-12-24T11:47:11.874Z,968.17
2017-12-24T11:48:21.594Z,968.16
2017-12-24T11:49:31.575Z,968.19
2017-12-24T11:50:41.294Z,968.19
2017-12-24T11:51:51.314Z,968.18
2017-12-24T11:53:01.029Z,968.24
2017-12-24T11:54:10.744Z,968.23
2017-12-24T11:55:20.740Z,968.2
2017-12-24T11:56:30.720Z,968.19
2017-12-24T11:57:40.701Z,968.11
2017-12-24T11:58:50.680Z,968.11
2017-12-24T12:00:00.659Z,968.06
2017-12-24T12:01:10.392Z,968.03
2017-12-24T12:02:20.113Z,968.04
2017-12-24T12:03:29.830Z,968.06
2017-12-24T12:04:39.548Z,968.04
2017-12-24T12:05:49.265Z,968.03
2017-12-24T12:06:59.240Z,968.05
2017-12-24T12:08:09.228Z,968.04
2017-12-24T12:09:19.234Z,968.03
2017-12-24T12:10:28.955Z,967.98
2017-12-24T12:11:38.942Z,968.01
2017-12-24T12:12:48.671Z,968.02
2017-12-24T12:13:58.661Z,968.03
2017-12-24T12:15:08.177Z,968.02
2017-12-24T12:16:18.160Z,968.04
2017-12-24T12:17:28.139Z,968.05
2017-12-24T12:18:37.860Z,968.08
2017-12-24T12:19:47.842Z,968.11
2017-12-24T12:20:57.829Z,968.09
2017-12-24T12:22:07.915Z,968.16
2017-12-24T12:23:17.631Z,968.19
2017-12-24T12:24:27.613Z,968.18
2017-12-24T12:25:37.330Z,968.17
2017-12-24T12:26:47.042Z,968.17
2017-12-24T12:27:57.023Z,968.13
2017-12-24T12:29:07.005Z,968.1
2017-12-24T12:30:16.992Z,968.1
2017-12-24T12:31:26.974Z,968.05
2017-12-24T12:32:36.967Z,968.06
2017-12-24T12:33:46.947Z,968.01
2017-12-24T12:34:56.705Z,968.01
2017-12-24T12:36:06.690Z,968.04
2017-12-24T12:37:16.407Z,968.06
2017-12-24T12:38:26.402Z,968.02
2017-12-24T12:39:36.120Z,968.09
2017-12-24T12:40:46.099Z,968.08
2017-12-24T12:41:56.138Z,968.09
2017-12-24T12:43:06.119Z,968.06
2017-12-24T12:44:16.101Z,968.04
2017-12-24T12:45:26.080Z,968.05
2017-12-24T12:46:36.059Z,967.99
2017-12-24T12:47:45.775Z,968.03
2017-12-24T12:48:55.756Z,967.98
2017-12-24T12:50:05.733Z,967.98
2017-12-24T12:51:15.451Z,967.96
2017-12-24T12:52:25.461Z,967.96
2017-12-24T12:53:35.441Z,967.93
2017-12-24T12:54:45.422Z,967.95
2017-12-24T12:55:55.408Z,967.94
2017-12-24T12:57:05.518Z,967.94
2017-12-24T12:58:14.702Z,967.99
2017-12-24T12:59:24.679Z,967.97
2017-12-24T13:00:34.662Z,968.01
2017-12-24T13:01:44.638Z,968.02
2017-12-24T13:02:54.623Z,968.04
2017-12-24T13:04:04.611Z,968.04
2017-12-24T13:05:14.590Z,968.05
2017-12-24T13:06:24.572Z,968.05
2017-12-24T13:07:34.285Z,968.03
2017-12-24T13:08:44.273Z,967.99
2017-12-24T13:09:53.986Z,967.97
2017-12-24T13:11:03.980Z,968.02
2017-12-24T13:12:13.995Z,968.02
2017-12-24T13:13:23.978Z,968.03
2017-12-24T13:14:33.958Z,968
2017-12-24T13:15:43.935Z,968.05
2017-12-24T13:16:53.913Z,968.13
2017-12-24T13:18:03.903Z,968.1
2017-12-24T13:19:13.888Z,968.07
2017-12-24T13:20:23.873Z,968.05
2017-12-24T13:21:33.584Z,968.03
2017-12-24T13:22:43.567Z,968.03
2017-12-24T13:23:53.283Z,967.99
2017-12-24T13:25:02.998Z,968.02
2017-12-24T13:26:12.719Z,968.02
2017-12-24T13:27:22.704Z,967.99
2017-12-24T13:28:32.681Z,967.95
2017-12-24T13:29:41.863Z,968.04
2017-12-24T13:30:51.857Z,968.07
2017-12-24T13:32:01.587Z,968.05
2017-12-24T13:33:11.567Z,968.05
2017-12-24T13:34:21.544Z,968.09
2017-12-24T13:35:31.525Z,968.02
2017-12-24T13:36:41.500Z,968
2017-12-24T13:37:51.211Z,967.93
2017-12-24T13:39:01.192Z,967.95
2017-12-24T13:40:11.172Z,967.9
2017-12-24T13:41:20.892Z,967.95
2017-12-24T13:42:30.340Z,967.91
2017-12-24T13:43:40.370Z,967.93
2017-12-24T13:44:50.434Z,967.9
2017-12-24T13:46:00.410Z,967.84
2017-12-24T13:47:10.124Z,967.86
2017-12-24T13:48:19.844Z,967.85
2017-12-24T13:49:29.825Z,967.8
2017-12-24T13:50:39.821Z,967.81
2017-12-24T13:51:49.803Z,967.79
2017-12-24T13:52:59.784Z,967.78
2017-12-24T13:54:09.763Z,967.82
2017-12-24T13:55:19.746Z,967.83
2017-12-24T13:56:29.196Z,967.89
2017-12-24T13:57:38.917Z,967.87
2017-12-24T13:58:48.905Z,967.87
2017-12-24T13:59:58.882Z,967.9
2017-12-24T14:01:08.868Z,967.85
2017-12-24T14:02:18.580Z,967.82
2017-12-24T14:03:28.567Z,967.78
2017-12-24T14:04:38.561Z,967.8
2017-12-24T14:05:48.541Z,967.81
2017-12-24T14:06:58.255Z,967.84
2017-12-24T14:08:08.237Z,967.83
2017-12-24T14:09:18.254Z,967.81
2017-12-24T14:10:28.262Z,967.81
2017-12-24T14:11:38.242Z,967.77
2017-12-24T14:12:48.274Z,967.76
2017-12-24T14:13:57.996Z,967.73
2017-12-24T14:15:07.980Z,967.71
2017-12-24T14:16:17.426Z,967.69
2017-12-24T14:17:27.411Z,967.72
2017-12-24T14:18:37.392Z,967.68
2017-12-24T14:19:47.368Z,967.68
2017-12-24T14:20:57.356Z,967.69
2017-12-24T14:22:07.332Z,967.63
2017-12-24T14:23:17.049Z,967.64
2017-12-24T14:24:26.772Z,967.62
2017-12-24T14:25:36.756Z,967.53
2017-12-24T14:26:46.754Z,967.56
2017-12-24T14:27:56.734Z,967.5
2017-12-24T14:29:06.445Z,967.51
2017-12-24T14:30:16.433Z,967.47
2017-12-24T14:31:26.163Z,967.45
2017-12-24T14:32:35.881Z,967.45
2017-12-24T14:33:45.923Z,967.43
2017-12-24T14:34:55.902Z,967.51
2017-12-24T14:36:05.615Z,967.5
2017-12-24T14:37:15.599Z,967.51
2017-12-24T14:38:25.583Z,967.53
2017-12-24T14:39:35.361Z,967.55